Time;durP1;ratioP1;P1;durP2;ratioP2;P2;SDS_P1;SDS_P2;PMS_P1;PMS_P2;Temp;Humidity;BMP_temperature;BMP_pressure;BME280_temperature;BME280_humidity;BME280_pressure;Samples;Min_cycle;Max_cycle;Signal;HPM_P1;HPM_P2
2022/05/19 00:01:04;;;;;;;13.10;8.98;;;16.10;99.90;;;;;;4251059;27;20408;-84
2022/05/19 00:03:05;;;;;;;12.90;8.40;;;15.70;99.90;;;;;;4251071;27;20039;-84
2022/05/19 00:05:07;;;;;;;11.55;8.75;;;16.00;99.90;;;;;;4243647;27;20098;-83
2022/05/19 00:07:09;;;;;;;10.18;7.68;;;16.10;99.90;;;;;;4215763;28;20032;-84
2022/05/19 00:09:11;;;;;;;11.70;7.40;;;16.10;99.90;;;;;;4233166;28;20042;-84
2022/05/19 00:11:16;;;;;;;9.60;6.53;;;16.10;99.90;;;;;;4233277;28;20046;-84
2022/05/19 00:13:16;;;;;;;12.98;8.63;;;16.10;99.90;;;;;;4233075;28;20105;-84
2022/05/19 00:15:17;;;;;;;12.25;7.88;;;16.10;99.90;;;;;;4233636;28;20480;-84
2022/05/19 00:17:18;;;;;;;11.43;7.57;;;16.10;99.90;;;;;;4233096;28;20043;-84
2022/05/19 00:19:19;;;;;;;11.90;7.13;;;16.10;99.90;;;;;;4215420;28;20442;-84
2022/05/19 00:21:19;;;;;;;10.55;7.72;;;16.00;99.90;;;;;;4214835;28;20044;-84
2022/05/19 00:23:20;;;;;;;11.65;8.07;;;16.00;99.90;;;;;;4232761;28;20486;-84
2022/05/19 00:25:21;;;;;;;12.65;7.80;;;16.00;99.90;;;;;;4233188;28;20449;-84
2022/05/19 00:27:23;;;;;;;9.93;7.65;;;16.00;99.90;;;;;;4232942;28;20048;-84
2022/05/19 00:29:24;;;;;;;9.63;7.40;;;15.90;99.90;;;;;;4233698;28;20466;-84
2022/05/19 00:31:26;;;;;;;9.20;7.05;;;15.90;99.90;;;;;;4233159;28;20479;-83
2022/05/19 00:33:27;;;;;;;8.70;7.07;;;15.90;99.90;;;;;;4233300;28;20035;-83
2022/05/19 00:35:28;;;;;;;9.82;7.55;;;15.90;99.90;;;;;;4238000;27;20096;-83
2022/05/19 00:37:29;;;;;;;8.57;6.65;;;15.80;99.90;;;;;;4231969;28;20050;-83
2022/05/19 00:39:34;;;;;;;10.55;6.90;;;15.80;99.90;;;;;;4250010;27;20091;-84
2022/05/19 00:41:39;;;;;;;10.00;7.40;;;15.80;99.90;;;;;;4250000;27;20043;-84
2022/05/19 00:43:43;;;;;;;9.70;8.48;;;15.70;99.90;;;;;;4249341;27;20080;-84
2022/05/19 00:46:05;;;;;;;11.65;8.85;;;15.70;99.90;;;;;;4249904;27;20479;-84
2022/05/19 00:48:12;;;;;;;14.63;8.75;;;15.60;99.90;;;;;;4231887;28;20075;-84
2022/05/19 00:50:28;;;;;;;13.07;8.63;;;15.50;99.90;;;;;;4249441;27;20047;-84
2022/05/19 00:52:34;;;;;;;14.35;9.50;;;15.50;99.90;;;;;;4249796;27;20044;-84
2022/05/19 00:54:40;;;;;;;14.43;10.75;;;15.50;99.90;;;;;;4249518;27;20054;-83
2022/05/19 00:56:53;;;;;;;14.80;10.13;;;15.50;99.90;;;;;;4249544;27;20088;-84
2022/05/19 00:59:03;;;;;;;17.05;10.73;;;15.50;99.90;;;;;;4249865;27;20058;-84
2022/05/19 01:01:06;;;;;;;22.90;12.35;;;15.40;99.90;;;;;;4248846;27;20047;-84
2022/05/19 01:03:07;;;;;;;22.55;12.35;;;15.40;99.90;;;;;;4249794;27;20050;-84
2022/05/19 01:05:12;;;;;;;21.73;13.40;;;15.40;99.90;;;;;;4249603;27;20047;-84
2022/05/19 01:07:19;;;;;;;21.98;14.45;;;15.40;99.90;;;;;;4249895;27;20125;-84
2022/05/19 01:09:20;;;;;;;29.83;14.65;;;15.40;99.90;;;;;;4249403;27;20047;-84
2022/05/19 01:11:21;;;;;;;22.02;15.00;;;15.40;99.90;;;;;;4249034;27;20043;-84
2022/05/19 01:13:22;;;;;;;27.85;15.80;;;15.40;99.90;;;;;;4249658;27;20035;-84
2022/05/19 01:15:23;;;;;;;24.90;15.02;;;15.40;99.90;;;;;;4249878;27;20468;-84
2022/05/19 01:17:23;;;;;;;26.42;15.60;;;15.50;99.90;;;;;;4249452;27;20054;-84
2022/05/19 01:19:46;;;;;;;23.77;16.05;;;15.50;99.90;;;;;;4231276;28;20036;-84
2022/05/19 01:21:49;;;;;;;26.55;16.50;;;15.50;99.90;;;;;;4249894;27;20403;-84
2022/05/19 01:24:12;;;;;;;32.28;16.77;;;15.50;99.90;;;;;;4249491;27;20072;-84
2022/05/19 01:26:32;;;;;;;25.85;15.60;;;15.50;99.90;;;;;;4232801;28;20488;-84
2022/05/19 01:28:32;;;;;;;33.10;16.05;;;15.40;99.90;;;;;;4250178;27;20047;-84
2022/05/19 01:30:33;;;;;;;28.65;17.38;;;15.40;99.90;;;;;;4249374;27;20043;-84
2022/05/19 01:32:35;;;;;;;22.90;15.38;;;15.40;99.90;;;;;;4248986;27;20043;-84
2022/05/19 01:34:36;;;;;;;31.90;17.33;;;15.40;99.90;;;;;;4250029;27;20035;-84
2022/05/19 01:36:37;;;;;;;28.15;16.02;;;15.40;99.90;;;;;;4249364;27;20043;-84
2022/05/19 01:38:37;;;;;;;30.63;17.25;;;15.40;99.90;;;;;;4249881;27;20077;-84
2022/05/19 01:40:50;;;;;;;30.77;17.30;;;15.40;99.90;;;;;;4248693;27;20035;-84
2022/05/19 01:43:12;;;;;;;27.38;17.67;;;15.30;99.90;;;;;;4249086;27;20051;-84
2022/05/19 01:45:49;;;;;;;32.45;18.30;;;15.30;99.90;;;;;;4249028;27;20066;-84
2022/05/19 01:48:06;;;;;;;32.72;18.95;;;15.30;99.90;;;;;;4230802;28;20528;-84
2022/05/19 01:50:06;;;;;;;27.30;17.58;;;15.30;99.90;;;;;;4248833;27;20506;-84
2022/05/19 01:52:23;;;;;;;31.92;18.38;;;15.20;99.90;;;;;;4248963;27;20087;-84
2022/05/19 01:54:33;;;;;;;32.65;20.55;;;15.30;99.90;;;;;;4230571;28;20094;-84
2022/05/19 01:56:43;;;;;;;25.95;17.83;;;15.30;99.90;;;;;;4248835;27;20043;-84
2022/05/19 01:58:52;;;;;;;36.65;19.50;;;15.30;99.90;;;;;;4248564;27;20039;-84
2022/05/19 02:00:55;;;;;;;31.92;21.63;;;15.40;99.90;;;;;;4248802;27;20399;-84
2022/05/19 02:03:11;;;;;;;31.75;21.70;;;15.40;99.90;;;;;;4230405;28;20047;-84
2022/05/19 02:05:22;;;;;;;31.90;21.15;;;15.40;99.90;;;;;;4249401;27;20047;-84
2022/05/19 02:07:23;;;;;;;36.72;22.80;;;15.40;99.90;;;;;;4242535;28;20499;-84
2022/05/19 02:09:41;;;;;;;35.40;22.00;;;15.40;99.90;;;;;;4245152;28;20454;-84
2022/05/19 02:11:57;;;;;;;42.50;23.98;;;15.40;99.90;;;;;;4244177;28;20047;-84
2022/05/19 02:14:02;;;;;;;43.00;25.45;;;15.40;99.90;;;;;;4243600;28;20122;-84
2022/05/19 02:16:06;;;;;;;41.70;24.52;;;15.50;99.90;;;;;;4224095;28;20075;-84
2022/05/19 02:18:08;;;;;;;38.92;25.30;;;15.50;99.90;;;;;;4240106;28;20436;-84
2022/05/19 02:20:13;;;;;;;40.15;25.60;;;15.50;99.90;;;;;;4231309;28;20051;-84
2022/05/19 02:22:19;;;;;;;46.83;25.52;;;15.50;99.90;;;;;;4231562;28;20104;-84
2022/05/19 02:24:25;;;;;;;39.42;24.55;;;15.40;99.90;;;;;;4213347;28;20382;-84
2022/05/19 02:26:35;;;;;;;41.10;25.30;;;15.50;99.90;;;;;;4213439;28;20048;-84
2022/05/19 02:28:38;;;;;;;40.33;24.35;;;15.50;99.90;;;;;;4231547;28;20073;-84
2022/05/19 02:30:40;;;;;;;39.97;25.98;;;15.50;99.90;;;;;;4231295;28;20043;-84
2022/05/19 02:32:41;;;;;;;38.55;22.77;;;15.40;99.90;;;;;;4231190;28;20047;-83
2022/05/19 02:34:41;;;;;;;47.13;27.63;;;15.40;99.90;;;;;;4213234;28;20403;-83
2022/05/19 02:36:43;;;;;;;37.55;24.65;;;15.40;99.90;;;;;;4245070;27;20064;-84
2022/05/19 02:38:43;;;;;;;43.90;26.33;;;15.40;99.90;;;;;;4248413;27;20054;-84
2022/05/19 02:40:45;;;;;;;42.10;26.30;;;15.40;99.90;;;;;;4229986;28;20044;-84
2022/05/19 02:42:48;;;;;;;42.35;26.60;;;15.40;99.90;;;;;;4248171;27;20519;-84
2022/05/19 02:44:49;;;;;;;41.92;27.25;;;15.40;99.90;;;;;;4229233;28;20458;-85
2022/05/19 02:46:49;;;;;;;44.38;26.45;;;15.50;99.90;;;;;;4212829;28;20040;-84
2022/05/19 02:48:50;;;;;;;41.58;28.38;;;15.40;99.90;;;;;;4248005;28;20042;-83
2022/05/19 02:50:51;;;;;;;45.83;29.33;;;15.40;99.90;;;;;;4248223;28;20538;-84
2022/05/19 02:52:51;;;;;;;46.90;28.63;;;15.40;99.90;;;;;;4248624;28;20031;-83
2022/05/19 02:54:52;;;;;;;45.63;27.85;;;15.40;99.90;;;;;;4247552;28;20115;-83
2022/05/19 02:56:53;;;;;;;48.72;28.63;;;15.40;99.90;;;;;;4229732;28;20047;-83
2022/05/19 02:58:53;;;;;;;49.60;30.20;;;15.40;99.90;;;;;;4248035;28;20055;-83
2022/05/19 03:00:54;;;;;;;47.72;29.17;;;15.40;99.90;;;;;;4248013;28;20482;-84
2022/05/19 03:02:57;;;;;;;48.53;27.98;;;15.40;99.90;;;;;;4248241;28;20031;-84
2022/05/19 03:04:58;;;;;;;46.38;27.20;;;15.40;99.90;;;;;;4247769;28;20043;-84
2022/05/19 03:06:59;;;;;;;44.72;27.08;;;15.40;99.90;;;;;;4249937;27;20043;-84
2022/05/19 03:08:59;;;;;;;42.20;27.63;;;15.40;99.90;;;;;;4233262;28;20052;-83
2022/05/19 03:11:00;;;;;;;42.88;25.70;;;15.40;99.90;;;;;;4251297;27;20122;-83
2022/05/19 03:13:01;;;;;;;44.15;24.48;;;15.40;99.90;;;;;;4251246;27;20039;-84
2022/05/19 03:15:02;;;;;;;46.17;25.85;;;15.50;99.90;;;;;;4250926;27;20533;-83
2022/05/19 03:17:06;;;;;;;46.78;26.52;;;15.50;99.90;;;;;;4251276;27;20043;-84
2022/05/19 03:19:09;;;;;;;46.28;25.55;;;15.40;99.90;;;;;;4233341;28;20032;-83
2022/05/19 03:21:10;;;;;;;39.53;25.48;;;15.50;99.90;;;;;;4251003;27;20055;-84
2022/05/19 03:23:11;;;;;;;39.97;25.25;;;15.50;99.90;;;;;;4251232;27;20515;-83
2022/05/19 03:25:12;;;;;;;41.20;25.70;;;15.50;99.90;;;;;;4251272;27;20486;-83
2022/05/19 03:27:13;;;;;;;49.78;26.73;;;15.50;99.90;;;;;;4251360;27;20081;-83
2022/05/19 03:29:14;;;;;;;40.05;26.17;;;15.50;99.90;;;;;;4250912;27;20039;-84
2022/05/19 03:31:15;;;;;;;45.10;25.77;;;15.50;99.90;;;;;;4251123;27;20060;-84
2022/05/19 03:33:15;;;;;;;47.17;25.83;;;15.60;99.90;;;;;;4250979;27;20039;-84
2022/05/19 03:35:16;;;;;;;50.60;27.02;;;15.60;99.90;;;;;;4251391;27;20402;-84
2022/05/19 03:37:17;;;;;;;45.58;26.63;;;15.60;99.90;;;;;;4251019;27;20043;-84
2022/05/19 03:39:18;;;;;;;51.03;27.75;;;15.60;99.90;;;;;;4250496;27;20048;-84
2022/05/19 03:41:19;;;;;;;47.90;28.10;;;15.60;99.90;;;;;;4232280;28;20079;-84
2022/05/19 03:43:19;;;;;;;51.28;26.88;;;15.60;99.90;;;;;;4250787;27;20039;-84
2022/05/19 03:45:20;;;;;;;48.47;27.33;;;15.60;99.90;;;;;;4250787;27;20073;-84
2022/05/19 03:47:21;;;;;;;47.15;29.42;;;15.60;99.90;;;;;;4232557;28;20044;-84
2022/05/19 03:49:21;;;;;;;46.97;28.10;;;15.60;99.90;;;;;;4232565;28;20058;-84
2022/05/19 03:51:26;;;;;;;51.72;28.25;;;15.70;99.90;;;;;;4250463;27;20051;-83
2022/05/19 03:53:27;;;;;;;54.17;31.40;;;15.70;99.90;;;;;;4251082;27;20109;-84
2022/05/19 03:55:28;;;;;;;52.22;29.95;;;15.70;99.90;;;;;;4251119;27;20050;-83
2022/05/19 03:57:28;;;;;;;51.72;28.92;;;15.70;99.90;;;;;;4232405;28;20048;-84
2022/05/19 03:59:29;;;;;;;55.25;30.52;;;15.70;99.90;;;;;;4251359;27;20739;-83
2022/05/19 04:01:30;;;;;;;55.03;29.98;;;15.80;99.90;;;;;;4251607;27;20039;-84
2022/05/19 04:03:31;;;;;;;64.93;31.25;;;15.80;99.90;;;;;;4251211;27;20027;-83
2022/05/19 04:05:32;;;;;;;53.85;31.42;;;15.80;99.90;;;;;;4239936;27;20117;-84
2022/05/19 04:07:33;;;;;;;54.20;30.45;;;15.80;99.90;;;;;;4234270;28;20043;-84
2022/05/19 04:09:33;;;;;;;59.00;31.75;;;15.90;99.90;;;;;;4234370;28;20039;-83
2022/05/19 04:11:35;;;;;;;52.53;30.38;;;15.90;99.90;;;;;;4234083;28;20051;-84
2022/05/19 04:13:36;;;;;;;59.20;33.08;;;15.90;99.90;;;;;;4233524;28;20092;-84
2022/05/19 04:15:37;;;;;;;61.35;32.95;;;15.90;99.90;;;;;;4214508;28;20048;-84
2022/05/19 04:17:38;;;;;;;58.90;31.02;;;16.00;99.90;;;;;;4232374;28;20067;-85
2022/05/19 04:19:39;;;;;;;58.10;32.20;;;16.00;99.90;;;;;;4214810;28;20048;-85
2022/05/19 04:21:39;;;;;;;53.05;31.52;;;16.00;99.90;;;;;;4233662;28;20115;-84
2022/05/19 04:23:40;;;;;;;56.63;33.45;;;16.00;99.90;;;;;;4233508;28;20475;-85
2022/05/19 04:25:41;;;;;;;60.00;33.15;;;16.00;99.90;;;;;;4233485;28;20075;-83
2022/05/19 04:27:42;;;;;;;63.53;33.60;;;16.10;99.90;;;;;;4232955;28;20043;-84
2022/05/19 04:29:43;;;;;;;58.75;33.80;;;16.10;99.90;;;;;;4233294;28;20043;-84
2022/05/19 04:31:43;;;;;;;63.38;33.95;;;16.10;99.90;;;;;;4233188;28;20048;-84
2022/05/19 04:33:44;;;;;;;58.75;34.22;;;16.10;99.90;;;;;;4215149;28;20050;-84
2022/05/19 04:35:45;;;;;;;56.30;32.45;;;16.10;99.90;;;;;;4214984;28;20056;-85
2022/05/19 04:37:47;;;;;;;55.28;32.65;;;15.90;99.90;;;;;;4197920;28;20048;-85
2022/05/19 04:39:48;;;;;;;55.35;32.40;;;16.20;99.90;;;;;;4232801;28;20120;-84
2022/05/19 04:41:48;;;;;;;53.17;31.48;;;16.20;99.90;;;;;;4233239;28;20035;-83
2022/05/19 04:43:51;;;;;;;55.72;32.00;;;16.20;99.90;;;;;;4238964;27;20039;-84
2022/05/19 04:45:54;;;;;;;58.72;32.47;;;16.30;99.90;;;;;;4248311;27;20475;-84
2022/05/19 04:47:54;;;;;;;54.45;30.05;;;16.30;99.90;;;;;;4249913;27;20487;-84
2022/05/19 04:49:55;;;;;;;55.63;32.50;;;16.30;99.90;;;;;;4249380;27;20070;-84
2022/05/19 04:51:56;;;;;;;48.28;28.88;;;16.40;99.90;;;;;;4249115;27;21056;-83
2022/05/19 04:53:57;;;;;;;55.80;30.83;;;16.50;99.90;;;;;;4230994;28;20411;-84
2022/05/19 04:55:57;;;;;;;51.72;31.00;;;16.50;99.90;;;;;;4249782;27;20134;-84
2022/05/19 04:57:58;;;;;;;52.47;30.08;;;16.60;99.90;;;;;;4249681;27;20043;-84
2022/05/19 04:59:59;;;;;;;54.20;29.48;;;16.60;99.90;;;;;;4249497;27;20102;-84
2022/05/19 05:01:59;;;;;;;50.28;28.67;;;16.70;99.90;;;;;;4248781;27;20043;-84
2022/05/19 05:04:00;;;;;;;49.85;28.38;;;16.70;99.90;;;;;;4249177;27;20402;-84
2022/05/19 05:06:02;;;;;;;53.25;28.27;;;16.70;99.90;;;;;;4230168;28;20096;-83
2022/05/19 05:08:03;;;;;;;51.90;27.95;;;16.80;99.90;;;;;;4248921;27;20043;-83
2022/05/19 05:10:05;;;;;;;50.08;28.45;;;16.80;99.90;;;;;;4248704;27;20506;-84
2022/05/19 05:12:06;;;;;;;48.88;28.38;;;16.90;99.90;;;;;;4248519;27;20035;-84
2022/05/19 05:14:08;;;;;;;50.58;29.27;;;16.90;99.90;;;;;;4230335;28;20047;-84
2022/05/19 05:16:09;;;;;;;50.22;28.83;;;17.00;99.90;;;;;;4248254;27;20081;-83
2022/05/19 05:18:10;;;;;;;49.97;28.30;;;17.00;99.90;;;;;;4249052;27;20043;-83
2022/05/19 05:20:15;;;;;;;47.20;28.33;;;17.10;99.90;;;;;;4248852;27;20047;-84
2022/05/19 05:22:16;;;;;;;48.70;29.63;;;17.10;99.90;;;;;;4248175;27;20047;-83
2022/05/19 05:24:17;;;;;;;51.95;28.40;;;17.20;99.90;;;;;;4249038;27;20070;-83
2022/05/19 05:26:18;;;;;;;48.15;28.60;;;17.30;99.90;;;;;;4250331;27;20039;-83
2022/05/19 05:28:19;;;;;;;46.88;28.25;;;17.30;99.90;;;;;;4249786;27;20109;-83
2022/05/19 05:30:20;;;;;;;56.35;29.02;;;17.40;99.90;;;;;;4230385;28;20043;-83
2022/05/19 05:32:20;;;;;;;46.92;28.38;;;17.50;99.90;;;;;;4249527;27;20493;-82
2022/05/19 05:34:21;;;;;;;49.00;27.30;;;17.50;99.90;;;;;;4249784;27;20039;-83
2022/05/19 05:36:22;;;;;;;47.28;26.73;;;;;;;;;;4249161;27;20046;-83
2022/05/19 05:38:24;;;;;;;47.00;26.45;;;;;;;;;;4249541;27;20503;-83
2022/05/19 05:40:26;;;;;;;46.75;26.17;;;;;;;;;;4214230;28;20044;-83
2022/05/19 05:42:27;;;;;;;43.30;26.48;;;17.60;99.90;;;;;;4248775;27;20043;-82
2022/05/19 05:44:27;;;;;;;45.15;25.23;;;18.00;99.90;;;;;;4249522;27;20403;-82
2022/05/19 05:46:28;;;;;;;45.28;25.55;;;18.10;99.90;;;;;;4249800;27;20035;-83
2022/05/19 05:48:29;;;;;;;46.80;25.63;;;18.20;99.90;;;;;;4249838;27;20039;-83
2022/05/19 05:50:30;;;;;;;38.75;22.75;;;18.30;99.90;;;;;;4249579;27;20092;-83
2022/05/19 05:52:31;;;;;;;36.45;23.85;;;18.40;99.90;;;;;;4231706;28;20043;-83
2022/05/19 05:54:32;;;;;;;36.97;22.63;;;18.60;99.90;;;;;;4249093;27;20501;-83
2022/05/19 05:56:33;;;;;;;33.30;21.48;;;;;;;;;;4248543;27;20477;-83
2022/05/19 05:58:34;;;;;;;34.35;20.90;;;18.70;99.90;;;;;;4249355;27;20502;-83
2022/05/19 06:00:38;;;;;;;32.58;20.20;;;19.00;99.90;;;;;;4249230;27;20059;-83
2022/05/19 06:02:39;;;;;;;35.00;21.77;;;19.10;99.90;;;;;;4250140;27;20039;-83
2022/05/19 06:04:40;;;;;;;36.72;20.92;;;19.10;99.90;;;;;;4246210;27;20032;-84
2022/05/19 06:06:45;;;;;;;33.40;19.85;;;19.20;99.90;;;;;;4233738;28;20058;-83
2022/05/19 06:08:46;;;;;;;35.33;21.10;;;19.30;99.90;;;;;;4233095;28;20059;-83
2022/05/19 06:10:48;;;;;;;34.45;19.50;;;19.30;99.90;;;;;;4234013;28;20047;-84
2022/05/19 06:12:49;;;;;;;33.05;19.83;;;19.40;99.90;;;;;;4233376;28;20071;-83
2022/05/19 06:14:56;;;;;;;35.78;19.17;;;19.40;99.90;;;;;;4233538;28;20044;-84
2022/05/19 06:16:57;;;;;;;31.15;18.35;;;19.50;99.90;;;;;;4232461;28;20036;-85
2022/05/19 06:18:59;;;;;;;32.30;18.40;;;19.50;99.90;;;;;;4232999;28;20479;-84
2022/05/19 06:21:00;;;;;;;25.83;16.85;;;19.60;99.90;;;;;;4232830;28;20052;-84
2022/05/19 06:23:03;;;;;;;26.90;17.00;;;19.60;99.90;;;;;;4231768;28;20082;-85
2022/05/19 06:25:06;;;;;;;27.27;16.30;;;19.70;99.90;;;;;;4231721;28;20051;-84
2022/05/19 06:27:06;;;;;;;29.63;17.33;;;19.70;99.90;;;;;;4230387;28;20508;-84
2022/05/19 06:29:08;;;;;;;25.10;16.15;;;19.70;99.90;;;;;;4211411;28;20543;-84
2022/05/19 06:31:09;;;;;;;25.63;16.27;;;20.10;99.90;;;;;;4231114;28;20048;-84
2022/05/19 06:33:12;;;;;;;25.40;16.73;;;19.80;99.90;;;;;;4213441;28;20474;-85
2022/05/19 06:35:16;;;;;;;28.95;16.52;;;19.90;99.90;;;;;;4231640;28;20083;-83
2022/05/19 06:37:17;;;;;;;25.08;15.77;;;19.90;99.90;;;;;;4231662;28;20457;-84
2022/05/19 06:39:19;;;;;;;24.05;15.70;;;19.90;99.90;;;;;;4232457;28;20032;-84
2022/05/19 06:43:40;;;;;;;;;;;20.00;99.90;;;;;;4231362;28;20130;-84
2022/05/19 06:45:43;;;;;;;21.15;14.73;;;20.10;99.90;;;;;;4231917;28;19969;-84
2022/05/19 06:47:45;;;;;;;25.10;16.20;;;20.10;99.90;;;;;;4212999;28;20040;-84
2022/05/19 06:49:48;;;;;;;29.83;16.40;;;20.10;99.90;;;;;;4196402;28;20504;-84
2022/05/19 06:51:49;;;;;;;23.88;13.55;;;20.10;99.90;;;;;;4213585;28;20463;-84
2022/05/19 06:53:51;;;;;;;21.27;13.93;;;20.00;99.90;;;;;;4231286;28;20078;-84
2022/05/19 06:55:52;;;;;;;20.38;14.25;;;20.00;99.90;;;;;;4231462;28;20034;-85
2022/05/19 06:57:53;;;;;;;24.48;11.20;;;20.00;99.90;;;;;;4213489;28;20052;-83
2022/05/19 06:59:54;;;;;;;22.88;12.38;;;19.90;99.90;;;;;;4231344;28;20043;-85
2022/05/19 07:01:55;;;;;;;17.23;10.93;;;19.80;99.90;;;;;;4231535;28;20044;-84
2022/05/19 07:03:56;;;;;;;19.42;11.18;;;19.70;99.90;;;;;;4213510;28;20525;-84
2022/05/19 07:05:57;;;;;;;18.33;11.50;;;19.60;99.90;;;;;;4245799;28;20049;-84
2022/05/19 07:07:59;;;;;;;20.10;11.70;;;19.60;99.90;;;;;;4249392;28;20118;-85
2022/05/19 07:09:59;;;;;;;24.38;13.63;;;19.60;99.90;;;;;;4248706;28;20069;-83
2022/05/19 07:12:01;;;;;;;23.20;12.88;;;19.50;99.90;;;;;;4248315;28;20035;-84
2022/05/19 07:14:04;;;;;;;22.45;13.35;;;19.40;99.90;;;;;;4248761;28;20042;-84
2022/05/19 07:16:05;;;;;;;21.45;14.43;;;19.40;99.90;;;;;;4229889;28;20494;-84
2022/05/19 07:18:40;;;;;;;20.92;14.65;;;19.40;99.90;;;;;;4230201;28;20075;-84
2022/05/19 07:20:43;;;;;;;21.05;15.00;;;19.40;99.90;;;;;;4245669;28;20063;-83
2022/05/19 07:22:44;;;;;;;22.90;14.68;;;19.40;99.90;;;;;;4212611;28;20077;-83
2022/05/19 07:24:46;;;;;;;24.48;15.32;;;19.40;99.90;;;;;;4230530;28;20109;-84
2022/05/19 07:26:49;;;;;;;30.10;16.20;;;19.40;99.90;;;;;;4248657;28;20136;-83
2022/05/19 07:28:50;;;;;;;23.65;16.27;;;19.50;99.90;;;;;;4248427;28;20081;-84
2022/05/19 07:30:51;;;;;;;26.52;15.95;;;19.40;99.90;;;;;;4248453;28;20483;-83
2022/05/19 07:32:53;;;;;;;23.27;15.88;;;19.40;99.90;;;;;;4246731;28;20043;-83
2022/05/19 07:34:56;;;;;;;24.23;16.08;;;19.40;99.90;;;;;;4209797;28;20044;-84
2022/05/19 07:36:57;;;;;;;22.38;15.98;;;19.10;99.90;;;;;;4230523;28;20126;-84
2022/05/19 07:38:59;;;;;;;23.88;14.63;;;19.40;99.90;;;;;;4212274;28;20466;-83
2022/05/19 07:41:03;;;;;;;25.52;13.65;;;19.40;99.90;;;;;;4211976;28;20097;-83
2022/05/19 07:45:23;;;;;;;;;;;19.30;99.90;;;;;;4248665;28;20051;-84
2022/05/19 07:47:24;;;;;;;18.10;11.23;;;19.30;99.90;;;;;;4228890;28;19922;-83
2022/05/19 07:49:26;;;;;;;17.15;9.82;;;19.30;99.90;;;;;;4229348;28;20047;-81
2022/05/19 07:51:31;;;;;;;14.57;8.13;;;19.20;99.90;;;;;;4233134;28;20526;-83
2022/05/19 07:53:32;;;;;;;18.13;8.05;;;19.20;99.90;;;;;;4252725;27;20115;-84
2022/05/19 07:55:33;;;;;;;19.42;6.72;;;19.10;99.90;;;;;;4250497;27;20035;-84
2022/05/19 07:57:34;;;;;;;18.30;7.35;;;19.20;99.90;;;;;;4215075;28;20123;-84
2022/05/19 07:59:34;;;;;;;13.52;7.00;;;19.20;99.90;;;;;;4232696;28;20038;-84
2022/05/19 08:01:37;;;;;;;11.30;5.75;;;19.20;99.90;;;;;;4251154;27;20050;-84
2022/05/19 08:03:38;;;;;;;14.18;6.20;;;19.30;99.90;;;;;;4251356;27;20039;-84
2022/05/19 08:05:39;;;;;;;18.27;6.03;;;19.30;99.90;;;;;;4215857;28;20048;-84
2022/05/19 08:07:40;;;;;;;20.08;6.65;;;19.40;99.90;;;;;;4251257;27;20050;-83
2022/05/19 08:12:00;;;;;;;13.07;5.18;;;19.40;99.90;;;;;;4250284;27;20116;-83
2022/05/19 08:16:22;;;;;;;20.45;6.35;;;19.40;99.90;;;;;;4251234;27;20039;-82
2022/05/19 08:18:25;;;;;;;12.98;5.18;;;19.40;99.90;;;;;;4232665;28;20062;-83
2022/05/19 08:20:28;;;;;;;12.20;4.95;;;19.40;99.90;;;;;;4232077;28;20062;-83
2022/05/19 08:22:29;;;;;;;10.85;4.65;;;19.40;99.90;;;;;;4232958;28;20406;-83
2022/05/19 08:24:30;;;;;;;11.57;5.18;;;19.40;99.90;;;;;;4234105;28;20075;-83
2022/05/19 08:26:31;;;;;;;9.57;4.82;;;19.60;99.90;;;;;;4232420;28;20481;-83
2022/05/19 08:28:32;;;;;;;13.05;4.45;;;19.60;99.90;;;;;;4222918;28;20499;-83
2022/05/19 08:30:34;;;;;;;9.48;4.18;;;19.70;99.90;;;;;;4216829;28;20134;-82
2022/05/19 08:32:35;;;;;;;8.00;4.05;;;19.70;99.90;;;;;;4215228;28;20058;-84
2022/05/19 08:34:37;;;;;;;8.20;5.30;;;19.70;99.90;;;;;;4216127;28;20040;-83
2022/05/19 08:36:38;;;;;;;10.68;5.25;;;19.80;99.90;;;;;;4215063;28;20040;-83
2022/05/19 08:38:40;;;;;;;11.20;5.25;;;19.70;99.90;;;;;;4216545;28;20145;-83
2022/05/19 08:40:55;;;;;;;12.00;5.30;;;19.60;99.90;;;;;;4216404;28;20036;-83
2022/05/19 08:42:59;;;;;;;12.15;5.07;;;19.60;99.90;;;;;;4216338;28;20079;-84
2022/05/19 08:45:04;;;;;;;11.05;4.93;;;19.50;99.90;;;;;;4216142;28;20040;-83
2022/05/19 08:47:07;;;;;;;8.90;5.78;;;19.60;99.90;;;;;;4223810;28;20519;-84
2022/05/19 08:49:44;;;;;;;11.55;5.60;;;19.70;99.90;;;;;;4233362;28;20046;-84
2022/05/19 08:51:58;;;;;;;10.65;5.00;;;19.70;99.90;;;;;;4187655;28;20043;-85
2022/05/19 08:54:04;;;;;;;10.32;5.30;;;19.90;99.90;;;;;;4233290;28;20040;-86
2022/05/19 08:56:17;;;;;;;8.23;4.78;;;20.00;99.90;;;;;;4232579;28;20395;-85
2022/05/19 08:58:23;;;;;;;9.30;4.97;;;20.10;99.90;;;;;;4234227;28;20391;-85
2022/05/19 09:00:30;;;;;;;8.57;4.68;;;20.30;99.90;;;;;;4234245;28;20403;-85
2022/05/19 09:03:06;;;;;;;10.35;5.40;;;20.40;99.90;;;;;;4232057;28;20461;-84
2022/05/19 09:05:12;;;;;;;11.07;5.70;;;20.50;99.90;;;;;;4194044;28;20427;-84
2022/05/19 09:10:05;;;;;;;8.00;4.72;;;20.90;99.90;;;;;;4233987;28;20048;-84
2022/05/19 09:12:10;;;;;;;7.75;4.25;;;21.00;99.90;;;;;;4233893;27;20485;-85
2022/05/19 09:14:16;;;;;;;10.40;5.10;;;21.20;99.90;;;;;;4234354;28;20043;-86
2022/05/19 09:16:20;;;;;;;10.45;4.45;;;21.30;99.90;;;;;;4232499;28;20035;-84
2022/05/19 09:18:29;;;;;;;10.38;4.50;;;21.40;99.90;;;;;;4233677;28;20487;-85
2022/05/19 09:20:44;;;;;;;15.02;5.50;;;21.60;99.90;;;;;;4232032;28;20142;-85
2022/05/19 09:22:45;;;;;;;8.70;4.78;;;21.90;99.90;;;;;;4215211;28;20039;-86
2022/05/19 09:24:49;;;;;;;7.80;4.28;;;22.10;99.90;;;;;;4232161;28;20080;-86
2022/05/19 09:26:55;;;;;;;8.95;4.38;;;22.10;99.90;;;;;;4215450;28;20484;-84
2022/05/19 09:28:58;;;;;;;7.95;4.90;;;22.20;99.90;;;;;;4233814;28;20097;-84
2022/05/19 09:30:59;;;;;;;8.52;4.78;;;22.40;99.90;;;;;;4215422;28;20055;-85
2022/05/19 09:33:05;;;;;;;8.98;4.97;;;22.50;99.90;;;;;;4231073;28;20110;-84
2022/05/19 09:35:09;;;;;;;8.48;4.78;;;22.60;99.90;;;;;;4234421;28;20400;-85
2022/05/19 09:37:17;;;;;;;8.25;4.38;;;22.70;99.80;;;;;;4232192;28;20122;-85
2022/05/19 09:39:20;;;;;;;9.85;5.15;;;22.80;99.60;;;;;;4233167;28;20044;-85
2022/05/19 09:41:32;;;;;;;9.10;4.65;;;23.00;99.20;;;;;;4232339;28;20044;-84
2022/05/19 09:43:36;;;;;;;8.48;4.50;;;23.20;98.90;;;;;;4232465;28;20059;-85
2022/05/19 09:45:42;;;;;;;9.18;4.55;;;23.20;98.30;;;;;;4232501;28;20047;-86
2022/05/19 09:47:45;;;;;;;10.82;5.40;;;23.00;97.90;;;;;;4215785;28;20144;-85
2022/05/19 09:49:54;;;;;;;7.70;3.92;;;22.90;98.20;;;;;;4215428;28;20435;-85
2022/05/19 09:52:00;;;;;;;9.90;5.43;;;23.00;98.30;;;;;;4231580;28;20055;-85
2022/05/19 09:54:01;;;;;;;13.13;6.40;;;23.00;97.60;;;;;;4214821;28;20079;-85
2022/05/19 09:56:10;;;;;;;10.70;6.28;;;22.90;97.80;;;;;;4233702;28;20044;-85
2022/05/19 09:58:18;;;;;;;10.77;6.43;;;22.80;97.70;;;;;;4214587;28;20115;-84
2022/05/19 10:00:30;;;;;;;12.88;5.78;;;22.70;97.40;;;;;;4233275;28;20043;-84
2022/05/19 10:02:55;;;;;;;12.23;6.13;;;22.80;97.50;;;;;;4233337;28;20457;-86
2022/05/19 10:04:58;;;;;;;11.18;5.68;;;22.80;97.40;;;;;;4226830;28;20055;-85
2022/05/19 10:07:13;;;;;;;8.13;5.85;;;23.10;97.50;;;;;;4214108;28;20047;-85
2022/05/19 10:09:19;;;;;;;10.85;5.55;;;23.30;97.10;;;;;;4214984;28;20589;-84
2022/05/19 10:11:27;;;;;;;8.77;5.30;;;23.80;97.00;;;;;;4215087;28;20369;-84
2022/05/19 10:13:32;;;;;;;11.63;6.38;;;;;;;;;;4215103;28;20044;-85
2022/05/19 10:15:55;;;;;;;13.02;8.45;;;;;;;;;;4214559;28;20107;-84
2022/05/19 10:18:20;;;;;;;17.83;7.05;;;23.70;96.80;;;;;;4217549;28;20052;-85
2022/05/19 10:20:29;;;;;;;13.20;6.93;;;24.30;95.70;;;;;;4215339;28;20432;-84
2022/05/19 10:22:43;;;;;;;14.90;7.40;;;24.20;95.70;;;;;;4216484;28;20040;-85
2022/05/19 10:25:02;;;;;;;13.18;7.45;;;24.20;95.70;;;;;;4217003;28;20048;-84
2022/05/19 10:32:26;;;;;;;17.63;7.90;;;;;;;;;;4221511;28;20385;-84
2022/05/19 10:34:40;;;;;;;13.40;6.07;;;;;;;;;;4221445;28;20576;-84
2022/05/19 10:36:56;;;;;;;12.63;7.43;;;;;;;;;;4218451;28;20131;-84
2022/05/19 10:39:02;;;;;;;10.65;5.45;;;;;;;;;;4219793;28;20128;-84
2022/05/19 10:41:03;;;;;;;9.55;6.25;;;;;;;;;;4205021;28;20075;-83
2022/05/19 10:43:27;;;;;;;11.25;4.90;;;;;;;;;;4234261;28;20539;-83
2022/05/19 10:45:28;;;;;;;10.75;6.78;;;;;;;;;;4234589;28;20043;-84
2022/05/19 10:47:31;;;;;;;9.82;5.88;;;;;;;;;;4236355;28;20036;-85
2022/05/19 10:49:50;;;;;;;10.98;4.13;;;;;;;;;;4236661;28;20093;-83
2022/05/19 10:51:57;;;;;;;6.80;4.15;;;24.20;95.10;;;;;;4233244;28;20100;-83
2022/05/19 10:54:17;;;;;;;9.80;5.00;;;;;;;;;;4212809;28;20039;-83
2022/05/19 10:56:55;;;;;;;7.72;4.47;;;26.10;89.20;;;;;;4214787;28;20048;-84